sensor_id;sensor_type;location;lat;lon;timestamp;pressure;altitude;pressure_sealevel;temperature;humidity
28456;BME280;15682;56.742;38.866;2023-03-05T00:00:18;96580.0;;;-1.7;93.5
28456;BME280;15682;56.742;38.866;2023-03-05T00:02:18;96580.0;;;-1.7;93.5
28456;BME280;15682;56.742;38.866;2023-03-05T00:04:18;96580.0;;;-1.7;93.5
28456;BME280;15682;56.742;38.866;2023-03-05T00:06:18;96580.0;;;-1.7;93.5
28456;BME280;15682;56.742;38.866;2023-03-05T00:08:18;96580.0;;;-1.7;93.5
28456;BME280;15682;56.742;38.866;2023-03-05T00:10:18;96580.0;;;-1.7;93.5
28456;BME280;15682;56.742;38.866;2023-03-05T00:12:17;96580.0;;;-1.7;93.5
28456;BME280;15682;56.742;38.866;2023-03-05T00:14:17;96580.0;;;-1.7;93.5
28456;BME280;15682;56.742;38.866;2023-03-05T00:16:17;96580.0;;;-1.7;93.5
28456;BME280;15682;56.742;38.866;2023-03-05T00:18:17;96580.0;;;-1.7;93.5
28456;BME280;15682;56.742;38.866;2023-03-05T00:20:17;96580.0;;;-1.7;93.5
28456;BME280;15682;56.742;38.866;2023-03-05T00:22:17;96580.0;;;-1.7;93.4
28456;BME280;15682;56.742;38.866;2023-03-05T00:24:17;96580.0;;;-1.8;93.4
28456;BME280;15682;56.742;38.866;2023-03-05T00:26:17;96580.0;;;-1.8;93.4
28456;BME280;15682;56.742;38.866;2023-03-05T00:28:16;96580.0;;;-1.8;93.4
28456;BME280;15682;56.742;38.866;2023-03-05T00:30:16;96580.0;;;-1.7;93.4
28456;BME280;15682;56.742;38.866;2023-03-05T00:32:16;96580.0;;;-1.7;92.8
28456;BME280;15682;56.742;38.866;2023-03-05T00:34:17;96580.0;;;-1.7;92.8
28456;BME280;15682;56.742;38.866;2023-03-05T00:36:16;96580.0;;;-1.7;92.8
28456;BME280;15682;56.742;38.866;2023-03-05T00:38:16;96580.0;;;-1.7;92.8
28456;BME280;15682;56.742;38.866;2023-03-05T00:40:16;96580.0;;;-1.7;92.8
28456;BME280;15682;56.742;38.866;2023-03-05T00:42:15;96580.0;;;-1.8;93.0
28456;BME280;15682;56.742;38.866;2023-03-05T00:44:15;96580.0;;;-1.8;93.3
28456;BME280;15682;56.742;38.866;2023-03-05T00:46:16;96580.0;;;-1.8;93.3
28456;BME280;15682;56.742;38.866;2023-03-05T00:48:15;96580.0;;;-1.8;93.3
28456;BME280;15682;56.742;38.866;2023-03-05T00:50:15;96580.0;;;-1.8;93.3
28456;BME280;15682;56.742;38.866;2023-03-05T00:52:15;96580.0;;;-1.9;93.7
28456;BME280;15682;56.742;38.866;2023-03-05T00:54:15;96580.0;;;-1.9;93.7
28456;BME280;15682;56.742;38.866;2023-03-05T00:56:15;96580.0;;;-1.9;93.7
28456;BME280;15682;56.742;38.866;2023-03-05T00:58:14;96580.0;;;-1.9;93.7
28456;BME280;15682;56.742;38.866;2023-03-05T01:00:15;96580.0;;;-2.0;93.8
28456;BME280;15682;56.742;38.866;2023-03-05T01:02:14;96580.0;;;-2.0;93.9
28456;BME280;15682;56.742;38.866;2023-03-05T01:04:14;96580.0;;;-2.0;93.9
28456;BME280;15682;56.742;38.866;2023-03-05T01:06:14;96580.0;;;-2.0;93.9
28456;BME280;15682;56.742;38.866;2023-03-05T01:08:14;96580.0;;;-2.0;93.9
28456;BME280;15682;56.742;38.866;2023-03-05T01:10:14;96580.0;;;-2.0;93.9
28456;BME280;15682;56.742;38.866;2023-03-05T01:12:13;96580.0;;;-2.0;94.0
28456;BME280;15682;56.742;38.866;2023-03-05T01:14:13;96580.0;;;-2.0;94.0
28456;BME280;15682;56.742;38.866;2023-03-05T01:16:13;96580.0;;;-2.0;94.0
28456;BME280;15682;56.742;38.866;2023-03-05T01:18:13;96580.0;;;-2.1;94.0
28456;BME280;15682;56.742;38.866;2023-03-05T01:20:15;96570.0;;;-2.1;94.0
28456;BME280;15682;56.742;38.866;2023-03-05T01:22:13;96570.0;;;-2.1;94.0
28456;BME280;15682;56.742;38.866;2023-03-05T01:24:13;96570.0;;;-2.1;94.0
28456;BME280;15682;56.742;38.866;2023-03-05T01:26:12;96570.0;;;-2.1;94.0
28456;BME280;15682;56.742;38.866;2023-03-05T01:28:12;96570.0;;;-2.1;94.0
28456;BME280;15682;56.742;38.866;2023-03-05T01:30:14;96570.0;;;-2.1;94.0
28456;BME280;15682;56.742;38.866;2023-03-05T01:32:12;96570.0;;;-2.0;94.0
28456;BME280;15682;56.742;38.866;2023-03-05T01:34:12;96570.0;;;-2.0;94.0
28456;BME280;15682;56.742;38.866;2023-03-05T01:36:14;96570.0;;;-2.0;94.0
28456;BME280;15682;56.742;38.866;2023-03-05T01:38:12;96570.0;;;-2.0;94.0
28456;BME280;15682;56.742;38.866;2023-03-05T01:40:14;96570.0;;;-2.0;94.0
28456;BME280;15682;56.742;38.866;2023-03-05T01:42:11;96570.0;;;-2.0;94.0
28456;BME280;15682;56.742;38.866;2023-03-05T01:44:21;96570.0;;;-2.0;94.0
28456;BME280;15682;56.742;38.866;2023-03-05T01:46:28;96570.0;;;-2.0;94.0
28456;BME280;15682;56.742;38.866;2023-03-05T01:48:11;96570.0;;;-2.0;94.0
28456;BME280;15682;56.742;38.866;2023-03-05T01:50:16;96570.0;;;-2.0;94.0
28456;BME280;15682;56.742;38.866;2023-03-05T01:52:14;96570.0;;;-2.0;94.2
28456;BME280;15682;56.742;38.866;2023-03-05T01:54:13;96570.0;;;-2.0;94.4
28456;BME280;15682;56.742;38.866;2023-03-05T01:56:10;96570.0;;;-2.0;94.4
28456;BME280;15682;56.742;38.866;2023-03-05T01:58:12;96570.0;;;-2.0;94.4
28456;BME280;15682;56.742;38.866;2023-03-05T02:00:14;96570.0;;;-2.0;94.4
28456;BME280;15682;56.742;38.866;2023-03-05T02:02:11;96570.0;;;-2.0;94.2
28456;BME280;15682;56.742;38.866;2023-03-05T02:04:14;96570.0;;;-2.0;94.2
28456;BME280;15682;56.742;38.866;2023-03-05T02:06:10;96570.0;;;-2.0;94.2
28456;BME280;15682;56.742;38.866;2023-03-05T02:08:12;96570.0;;;-2.0;94.2
28456;BME280;15682;56.742;38.866;2023-03-05T02:10:19;96570.0;;;-2.0;94.2
28456;BME280;15682;56.742;38.866;2023-03-05T02:12:10;96570.0;;;-2.0;94.4
28456;BME280;15682;56.742;38.866;2023-03-05T02:14:09;96570.0;;;-2.0;94.4
28456;BME280;15682;56.742;38.866;2023-03-05T02:16:09;96570.0;;;-2.0;94.4
28456;BME280;15682;56.742;38.866;2023-03-05T02:18:09;96570.0;;;-2.0;94.4
28456;BME280;15682;56.742;38.866;2023-03-05T02:20:11;96570.0;;;-2.0;94.4
28456;BME280;15682;56.742;38.866;2023-03-05T02:22:13;96560.0;;;-2.0;94.0
28456;BME280;15682;56.742;38.866;2023-03-05T02:24:11;96560.0;;;-2.0;94.0
28456;BME280;15682;56.742;38.866;2023-03-05T02:26:10;96560.0;;;-2.0;94.0
28456;BME280;15682;56.742;38.866;2023-03-05T02:28:14;96560.0;;;-2.1;94.0
28456;BME280;15682;56.742;38.866;2023-03-05T02:30:09;96560.0;;;-2.1;94.0
28456;BME280;15682;56.742;38.866;2023-03-05T02:32:08;96560.0;;;-2.1;94.0
28456;BME280;15682;56.742;38.866;2023-03-05T02:34:08;96560.0;;;-2.1;94.0
28456;BME280;15682;56.742;38.866;2023-03-05T02:36:08;96560.0;;;-2.1;94.0
28456;BME280;15682;56.742;38.866;2023-03-05T02:38:08;96560.0;;;-2.1;94.0
28456;BME280;15682;56.742;38.866;2023-03-05T02:40:09;96560.0;;;-2.1;94.0
28456;BME280;15682;56.742;38.866;2023-03-05T02:42:07;96560.0;;;-2.1;94.1
28456;BME280;15682;56.742;38.866;2023-03-05T02:44:07;96560.0;;;-2.1;94.1
28456;BME280;15682;56.742;38.866;2023-03-05T02:46:07;96560.0;;;-2.1;94.1
28456;BME280;15682;56.742;38.866;2023-03-05T02:48:07;96560.0;;;-2.1;94.1
28456;BME280;15682;56.742;38.866;2023-03-05T02:50:10;96560.0;;;-2.1;94.1
28456;BME280;15682;56.742;38.866;2023-03-05T02:52:07;96560.0;;;-2.0;94.2
28456;BME280;15682;56.742;38.866;2023-03-05T02:54:06;96560.0;;;-2.0;94.2
28456;BME280;15682;56.742;38.866;2023-03-05T02:56:06;96560.0;;;-2.0;94.2
28456;BME280;15682;56.742;38.866;2023-03-05T02:58:06;96560.0;;;-2.0;94.2
28456;BME280;15682;56.742;38.866;2023-03-05T03:00:07;96560.0;;;-2.0;93.8
28456;BME280;15682;56.742;38.866;2023-03-05T03:02:06;96560.0;;;-2.0;94.1
28456;BME280;15682;56.742;38.866;2023-03-05T03:04:06;96560.0;;;-2.0;94.1
28456;BME280;15682;56.742;38.866;2023-03-05T03:06:06;96560.0;;;-2.0;94.1
28456;BME280;15682;56.742;38.866;2023-03-05T03:08:06;96560.0;;;-2.0;94.1
28456;BME280;15682;56.742;38.866;2023-03-05T03:10:06;96560.0;;;-2.0;94.4
28456;BME280;15682;56.742;38.866;2023-03-05T03:12:06;96560.0;;;-2.0;94.5
28456;BME280;15682;56.742;38.866;2023-03-05T03:14:05;96560.0;;;-2.0;94.5
28456;BME280;15682;56.742;38.866;2023-03-05T03:16:08;96560.0;;;-2.0;94.5
28456;BME280;15682;56.742;38.866;2023-03-05T03:18:05;96560.0;;;-2.0;94.5
28456;BME280;15682;56.742;38.866;2023-03-05T03:20:08;96560.0;;;-2.0;94.5
28456;BME280;15682;56.742;38.866;2023-03-05T03:22:06;96560.0;;;-2.0;94.4
28456;BME280;15682;56.742;38.866;2023-03-05T03:24:05;96560.0;;;-2.0;94.4
28456;BME280;15682;56.742;38.866;2023-03-05T03:26:04;96560.0;;;-2.0;94.4
28456;BME280;15682;56.742;38.866;2023-03-05T03:28:04;96560.0;;;-2.0;94.4
28456;BME280;15682;56.742;38.866;2023-03-05T03:30:05;96560.0;;;-2.0;94.4
28456;BME280;15682;56.742;38.866;2023-03-05T03:32:04;96560.0;;;-2.0;94.5
28456;BME280;15682;56.742;38.866;2023-03-05T03:34:04;96560.0;;;-2.0;94.5
28456;BME280;15682;56.742;38.866;2023-03-05T03:36:04;96560.0;;;-2.0;94.5
28456;BME280;15682;56.742;38.866;2023-03-05T03:38:04;96560.0;;;-2.0;94.5
28456;BME280;15682;56.742;38.866;2023-03-05T03:40:04;96560.0;;;-2.0;94.5
28456;BME280;15682;56.742;38.866;2023-03-05T03:42:04;96560.0;;;-2.0;94.6
28456;BME280;15682;56.742;38.866;2023-03-05T03:44:03;96560.0;;;-2.0;94.6
28456;BME280;15682;56.742;38.866;2023-03-05T03:46:04;96560.0;;;-2.0;95.0
28456;BME280;15682;56.742;38.866;2023-03-05T03:48:03;96560.0;;;-2.0;95.0
28456;BME280;15682;56.742;38.866;2023-03-05T03:50:03;96560.0;;;-2.0;95.0
28456;BME280;15682;56.742;38.866;2023-03-05T03:52:03;96560.0;;;-2.0;94.5
28456;BME280;15682;56.742;38.866;2023-03-05T03:54:02;96560.0;;;-2.0;94.5
28456;BME280;15682;56.742;38.866;2023-03-05T03:56:03;96560.0;;;-2.0;94.5
28456;BME280;15682;56.742;38.866;2023-03-05T03:58:02;96560.0;;;-2.0;94.5
28456;BME280;15682;56.742;38.866;2023-03-05T04:00:04;96560.0;;;-2.0;94.5
28456;BME280;15682;56.742;38.866;2023-03-05T04:02:02;96560.0;;;-2.1;95.1
28456;BME280;15682;56.742;38.866;2023-03-05T04:04:02;96560.0;;;-2.1;95.1
28456;BME280;15682;56.742;38.866;2023-03-05T04:06:02;96560.0;;;-2.1;94.3
28456;BME280;15682;56.742;38.866;2023-03-05T04:08:01;96570.0;;;-2.1;94.3
28456;BME280;15682;56.742;38.866;2023-03-05T04:10:02;96570.0;;;-2.0;94.3
28456;BME280;15682;56.742;38.866;2023-03-05T04:12:01;96570.0;;;-2.0;94.0
28456;BME280;15682;56.742;38.866;2023-03-05T04:14:01;96570.0;;;-2.0;94.0
28456;BME280;15682;56.742;38.866;2023-03-05T04:16:01;96570.0;;;-2.0;94.0
28456;BME280;15682;56.742;38.866;2023-03-05T04:18:01;96570.0;;;-2.0;94.0
28456;BME280;15682;56.742;38.866;2023-03-05T04:20:01;96570.0;;;-2.0;94.0
28456;BME280;15682;56.742;38.866;2023-03-05T04:22:00;96570.0;;;-2.0;93.9
28456;BME280;15682;56.742;38.866;2023-03-05T04:24:00;96580.0;;;-2.0;93.5
28456;BME280;15682;56.742;38.866;2023-03-05T04:26:00;96580.0;;;-2.0;93.5
28456;BME280;15682;56.742;38.866;2023-03-05T04:28:00;96580.0;;;-2.0;92.8
28456;BME280;15682;56.742;38.866;2023-03-05T04:30:00;96580.0;;;-2.1;92.8
28456;BME280;15682;56.742;38.866;2023-03-05T04:32:00;96580.0;;;-2.0;93.2
28456;BME280;15682;56.742;38.866;2023-03-05T04:34:00;96580.0;;;-2.0;93.2
28456;BME280;15682;56.742;38.866;2023-03-05T04:36:00;96580.0;;;-2.0;93.2
28456;BME280;15682;56.742;38.866;2023-03-05T04:37:59;96580.0;;;-2.2;93.2
28456;BME280;15682;56.742;38.866;2023-03-05T04:39:59;96580.0;;;-2.0;93.2
28456;BME280;15682;56.742;38.866;2023-03-05T04:41:59;96580.0;;;-2.0;92.5
28456;BME280;15682;56.742;38.866;2023-03-05T04:43:59;96580.0;;;-2.0;92.5
28456;BME280;15682;56.742;38.866;2023-03-05T04:45:59;96580.0;;;-2.0;92.5
28456;BME280;15682;56.742;38.866;2023-03-05T04:47:59;96590.0;;;-2.2;92.5
28456;BME280;15682;56.742;38.866;2023-03-05T04:49:59;96590.0;;;-2.2;92.5
28456;BME280;15682;56.742;38.866;2023-03-05T04:51:58;96590.0;;;-2.2;92.3
28456;BME280;15682;56.742;38.866;2023-03-05T04:53:59;96590.0;;;-2.2;91.7
28456;BME280;15682;56.742;38.866;2023-03-05T04:55:58;96590.0;;;-2.2;91.7
28456;BME280;15682;56.742;38.866;2023-03-05T04:57:58;96590.0;;;-2.2;91.7
28456;BME280;15682;56.742;38.866;2023-03-05T04:59:58;96600.0;;;-2.2;91.7
28456;BME280;15682;56.742;38.866;2023-03-05T05:01:58;96600.0;;;-2.1;91.5
28456;BME280;15682;56.742;38.866;2023-03-05T05:03:58;96600.0;;;-2.1;91.2
28456;BME280;15682;56.742;38.866;2023-03-05T05:05:59;96610.0;;;-2.1;91.2
28456;BME280;15682;56.742;38.866;2023-03-05T05:07:57;96610.0;;;-2.1;91.2
28456;BME280;15682;56.742;38.866;2023-03-05T05:09:57;96610.0;;;-2.3;91.2
28456;BME280;15682;56.742;38.866;2023-03-05T05:11:57;96610.0;;;-2.4;91.6
28456;BME280;15682;56.742;38.866;2023-03-05T05:13:57;96610.0;;;-2.4;91.6
28456;BME280;15682;56.742;38.866;2023-03-05T05:15:57;96610.0;;;-2.1;91.6
28456;BME280;15682;56.742;38.866;2023-03-05T05:17:57;96610.0;;;-2.3;91.6
28456;BME280;15682;56.742;38.866;2023-03-05T05:19:57;96610.0;;;-2.3;91.6
28456;BME280;15682;56.742;38.866;2023-03-05T05:21:56;96610.0;;;-2.2;91.0
28456;BME280;15682;56.742;38.866;2023-03-05T05:23:56;96610.0;;;-2.2;90.6
28456;BME280;15682;56.742;38.866;2023-03-05T05:25:57;96610.0;;;-2.2;90.6
28456;BME280;15682;56.742;38.866;2023-03-05T05:27:56;96610.0;;;-2.2;91.5
28456;BME280;15682;56.742;38.866;2023-03-05T05:29:56;96610.0;;;-2.2;90.9
28456;BME280;15682;56.742;38.866;2023-03-05T05:31:56;96610.0;;;-2.1;90.5
28456;BME280;15682;56.742;38.866;2023-03-05T05:33:56;96610.0;;;-1.9;91.1
28456;BME280;15682;56.742;38.866;2023-03-05T05:35:55;96620.0;;;-1.9;90.1
28456;BME280;15682;56.742;38.866;2023-03-05T05:37:55;96620.0;;;-1.9;90.1
28456;BME280;15682;56.742;38.866;2023-03-05T05:39:55;96620.0;;;-1.8;89.5
28456;BME280;15682;56.742;38.866;2023-03-05T05:41:56;96620.0;;;-1.9;89.7
28456;BME280;15682;56.742;38.866;2023-03-05T05:43:55;96620.0;;;-1.8;89.7
28456;BME280;15682;56.742;38.866;2023-03-05T05:45:58;96620.0;;;-1.8;89.7
28456;BME280;15682;56.742;38.866;2023-03-05T05:47:55;96620.0;;;-1.8;89.7
28456;BME280;15682;56.742;38.866;2023-03-05T05:49:55;96620.0;;;-1.9;89.7
28456;BME280;15682;56.742;38.866;2023-03-05T05:51:54;96620.0;;;-1.8;89.1
28456;BME280;15682;56.742;38.866;2023-03-05T05:53:54;96630.0;;;-1.8;88.9
28456;BME280;15682;56.742;38.866;2023-03-05T05:55:54;96640.0;;;-1.8;88.9
28456;BME280;15682;56.742;38.866;2023-03-05T05:57:54;96640.0;;;-1.9;88.9
28456;BME280;15682;56.742;38.866;2023-03-05T05:59:54;96640.0;;;-1.8;88.9
28456;BME280;15682;56.742;38.866;2023-03-05T06:01:54;96640.0;;;-1.6;88.5
28456;BME280;15682;56.742;38.866;2023-03-05T06:03:55;96650.0;;;-1.7;88.4
28456;BME280;15682;56.742;38.866;2023-03-05T06:05:53;96650.0;;;-1.8;88.4
28456;BME280;15682;56.742;38.866;2023-03-05T06:07:53;96650.0;;;-1.6;88.4
28456;BME280;15682;56.742;38.866;2023-03-05T06:09:53;96650.0;;;-1.6;88.4
28456;BME280;15682;56.742;38.866;2023-03-05T06:11:53;96650.0;;;-1.6;88.0
28456;BME280;15682;56.742;38.866;2023-03-05T06:13:53;96650.0;;;-1.9;88.0
28456;BME280;15682;56.742;38.866;2023-03-05T06:15:55;96650.0;;;-2.0;89.3
28456;BME280;15682;56.742;38.866;2023-03-05T06:17:53;96650.0;;;-1.8;89.3
28456;BME280;15682;56.742;38.866;2023-03-05T06:19:53;96650.0;;;-1.8;88.8
28456;BME280;15682;56.742;38.866;2023-03-05T06:21:53;96650.0;;;-1.7;88.5
28456;BME280;15682;56.742;38.866;2023-03-05T06:23:52;96650.0;;;-1.7;88.5
28456;BME280;15682;56.742;38.866;2023-03-05T06:25:54;96660.0;;;-1.7;88.2
28456;BME280;15682;56.742;38.866;2023-03-05T06:27:52;96660.0;;;-1.7;88.2
28456;BME280;15682;56.742;38.866;2023-03-05T06:29:53;96660.0;;;-1.7;88.2
28456;BME280;15682;56.742;38.866;2023-03-05T06:31:52;96660.0;;;-1.6;87.8
28456;BME280;15682;56.742;38.866;2023-03-05T06:33:53;96660.0;;;-1.6;87.8
28456;BME280;15682;56.742;38.866;2023-03-05T06:35:52;96620.0;;;-1.6;87.7
28456;BME280;15682;56.742;38.866;2023-03-05T06:37:51;96620.0;;;-1.3;87.7
28456;BME280;15682;56.742;38.866;2023-03-05T06:39:51;96620.0;;;-1.1;87.1
28456;BME280;15682;56.742;38.866;2023-03-05T06:41:51;96620.0;;;-1.1;86.5
28456;BME280;15682;56.742;38.866;2023-03-05T06:43:52;96620.0;;;-1.1;86.5
28456;BME280;15682;56.742;38.866;2023-03-05T06:46:00;96620.0;;;-1.4;87.3
28456;BME280;15682;56.742;38.866;2023-03-05T06:47:51;96620.0;;;-1.3;87.3
28456;BME280;15682;56.742;38.866;2023-03-05T06:49:51;96620.0;;;-1.5;87.3
28456;BME280;15682;56.742;38.866;2023-03-05T06:51:51;96630.0;;;-1.2;87.4
28456;BME280;15682;56.742;38.866;2023-03-05T06:53:52;96630.0;;;-1.3;87.4
28456;BME280;15682;56.742;38.866;2023-03-05T06:55:50;96640.0;;;-1.3;87.4
28456;BME280;15682;56.742;38.866;2023-03-05T06:57:50;96640.0;;;-1.3;87.4
28456;BME280;15682;56.742;38.866;2023-03-05T06:59:50;96640.0;;;-1.3;87.4
28456;BME280;15682;56.742;38.866;2023-03-05T07:01:50;96640.0;;;-1.2;86.6
28456;BME280;15682;56.742;38.866;2023-03-05T07:03:53;96640.0;;;-1.0;86.2
28456;BME280;15682;56.742;38.866;2023-03-05T07:05:50;96640.0;;;-1.2;86.2
28456;BME280;15682;56.742;38.866;2023-03-05T07:07:50;96640.0;;;-0.9;86.3
28456;BME280;15682;56.742;38.866;2023-03-05T07:09:50;96640.0;;;-0.8;85.7
28456;BME280;15682;56.742;38.866;2023-03-05T07:11:50;96640.0;;;-0.8;84.9
28456;BME280;15682;56.742;38.866;2023-03-05T07:13:50;96640.0;;;-0.8;84.9
28456;BME280;15682;56.742;38.866;2023-03-05T07:15:49;96640.0;;;-0.6;84.3
28456;BME280;15682;56.742;38.866;2023-03-05T07:17:49;96650.0;;;-0.4;84.3
28456;BME280;15682;56.742;38.866;2023-03-05T07:19:49;96650.0;;;-0.6;83.6
28456;BME280;15682;56.742;38.866;2023-03-05T07:21:49;96650.0;;;-0.4;84.4
28456;BME280;15682;56.742;38.866;2023-03-05T07:23:51;96660.0;;;-0.4;83.7
28456;BME280;15682;56.742;38.866;2023-03-05T07:25:49;96670.0;;;-0.2;83.7
28456;BME280;15682;56.742;38.866;2023-03-05T07:27:49;96670.0;;;0.2;83.1
28456;BME280;15682;56.742;38.866;2023-03-05T07:29:49;96680.0;;;-0.0;82.3
28456;BME280;15682;56.742;38.866;2023-03-05T07:31:49;96680.0;;;-0.0;83.1
28456;BME280;15682;56.742;38.866;2023-03-05T07:33:49;96680.0;;;-0.2;83.7
28456;BME280;15682;56.742;38.866;2023-03-05T07:35:49;96690.0;;;-0.0;83.7
28456;BME280;15682;56.742;38.866;2023-03-05T07:37:48;96690.0;;;-0.2;83.7
28456;BME280;15682;56.742;38.866;2023-03-05T07:39:48;96690.0;;;-0.1;83.7
28456;BME280;15682;56.742;38.866;2023-03-05T07:41:48;96690.0;;;-0.2;83.1
28456;BME280;15682;56.742;38.866;2023-03-05T07:43:49;96690.0;;;-0.0;83.1
28456;BME280;15682;56.742;38.866;2023-03-05T07:45:48;96690.0;;;-0.0;83.1
28456;BME280;15682;56.742;38.866;2023-03-05T07:47:48;96690.0;;;0.4;83.1
28456;BME280;15682;56.742;38.866;2023-03-05T07:49:48;96690.0;;;0.1;82.5
28456;BME280;15682;56.742;38.866;2023-03-05T07:51:48;96690.0;;;0.3;81.8
28456;BME280;15682;56.742;38.866;2023-03-05T07:53:50;96690.0;;;0.3;81.8
28456;BME280;15682;56.742;38.866;2023-03-05T07:55:48;96690.0;;;0.3;82.5
28456;BME280;15682;56.742;38.866;2023-03-05T07:57:48;96700.0;;;0.4;82.5
28456;BME280;15682;56.742;38.866;2023-03-05T07:59:47;96700.0;;;0.4;81.5
28456;BME280;15682;56.742;38.866;2023-03-05T08:01:47;96700.0;;;0.1;82.0
28456;BME280;15682;56.742;38.866;2023-03-05T08:03:47;96710.0;;;0.4;82.0
28456;BME280;15682;56.742;38.866;2023-03-05T08:05:47;96710.0;;;0.4;82.6
28456;BME280;15682;56.742;38.866;2023-03-05T08:07:47;96710.0;;;0.3;82.6
28456;BME280;15682;56.742;38.866;2023-03-05T08:09:47;96720.0;;;0.5;82.6
28456;BME280;15682;56.742;38.866;2023-03-05T08:11:47;96720.0;;;0.7;82.5
28456;BME280;15682;56.742;38.866;2023-03-05T08:13:47;96720.0;;;0.5;82.5
28456;BME280;15682;56.742;38.866;2023-03-05T08:15:47;96720.0;;;0.4;81.6
28456;BME280;15682;56.742;38.866;2023-03-05T08:17:47;96720.0;;;0.3;82.9
28456;BME280;15682;56.742;38.866;2023-03-05T08:19:47;96720.0;;;0.6;82.9
28456;BME280;15682;56.742;38.866;2023-03-05T08:21:47;96720.0;;;0.6;81.4
28456;BME280;15682;56.742;38.866;2023-03-05T08:23:47;96730.0;;;0.4;82.9
28456;BME280;15682;56.742;38.866;2023-03-05T08:25:47;96730.0;;;0.6;82.0
28456;BME280;15682;56.742;38.866;2023-03-05T08:27:47;96740.0;;;0.1;83.0
28456;BME280;15682;56.742;38.866;2023-03-05T08:29:46;96740.0;;;0.3;83.0
28456;BME280;15682;56.742;38.866;2023-03-05T08:31:47;96740.0;;;-0.0;83.1
28456;BME280;15682;56.742;38.866;2023-03-05T08:33:46;96750.0;;;0.3;82.4
28456;BME280;15682;56.742;38.866;2023-03-05T08:35:46;96750.0;;;0.1;83.0
28456;BME280;15682;56.742;38.866;2023-03-05T08:37:47;96750.0;;;0.1;81.9
28456;BME280;15682;56.742;38.866;2023-03-05T08:39:46;96750.0;;;0.1;82.6
28456;BME280;15682;56.742;38.866;2023-03-05T08:41:46;96760.0;;;0.1;82.2
28456;BME280;15682;56.742;38.866;2023-03-05T08:43:46;96760.0;;;0.2;81.3
28456;BME280;15682;56.742;38.866;2023-03-05T08:45:46;96770.0;;;0.2;81.3
28456;BME280;15682;56.742;38.866;2023-03-05T08:47:46;96770.0;;;0.5;81.3
28456;BME280;15682;56.742;38.866;2023-03-05T08:49:46;96770.0;;;0.3;80.8
28456;BME280;15682;56.742;38.866;2023-03-05T08:51:46;96770.0;;;0.3;80.3
28456;BME280;15682;56.742;38.866;2023-03-05T08:53:46;96780.0;;;0.3;79.4
28456;BME280;15682;56.742;38.866;2023-03-05T08:55:53;96780.0;;;0.1;79.4
28456;BME280;15682;56.742;38.866;2023-03-05T08:57:45;96780.0;;;0.1;79.4
28456;BME280;15682;56.742;38.866;2023-03-05T08:59:45;96780.0;;;0.1;80.1
28456;BME280;15682;56.742;38.866;2023-03-05T09:01:45;96780.0;;;0.0;80.4
28456;BME280;15682;56.742;38.866;2023-03-05T09:03:45;96780.0;;;0.0;80.4
28456;BME280;15682;56.742;38.866;2023-03-05T09:05:45;96780.0;;;0.3;81.0
28456;BME280;15682;56.742;38.866;2023-03-05T09:07:45;96790.0;;;0.2;80.3
28456;BME280;15682;56.742;38.866;2023-03-05T09:09:45;96790.0;;;-0.1;80.3
28456;BME280;15682;56.742;38.866;2023-03-05T09:11:45;96790.0;;;-0.1;81.4
28456;BME280;15682;56.742;38.866;2023-03-05T09:13:45;96790.0;;;-0.1;81.9
28456;BME280;15682;56.742;38.866;2023-03-05T09:15:44;96790.0;;;-0.2;81.9
28456;BME280;15682;56.742;38.866;2023-03-05T09:17:44;96800.0;;;-0.2;81.9
28456;BME280;15682;56.742;38.866;2023-03-05T09:19:44;96800.0;;;-0.0;81.4
28456;BME280;15682;56.742;38.866;2023-03-05T09:21:44;96800.0;;;0.1;81.3
28456;BME280;15682;56.742;38.866;2023-03-05T09:23:45;96800.0;;;0.3;81.3
28456;BME280;15682;56.742;38.866;2023-03-05T09:25:44;96800.0;;;0.4;79.9
28456;BME280;15682;56.742;38.866;2023-03-05T09:27:44;96810.0;;;0.5;79.9
28456;BME280;15682;56.742;38.866;2023-03-05T09:29:44;96810.0;;;0.4;80.7
28456;BME280;15682;56.742;38.866;2023-03-05T09:31:44;96810.0;;;0.6;80.8
28456;BME280;15682;56.742;38.866;2023-03-05T09:33:45;96810.0;;;0.4;81.4
28456;BME280;15682;56.742;38.866;2023-03-05T09:35:44;96810.0;;;0.4;81.2
28456;BME280;15682;56.742;38.866;2023-03-05T09:37:43;96810.0;;;0.6;80.5
28456;BME280;15682;56.742;38.866;2023-03-05T09:39:43;96820.0;;;0.6;79.6
28456;BME280;15682;56.742;38.866;2023-03-05T09:41:57;96820.0;;;0.6;80.1
28456;BME280;15682;56.742;38.866;2023-03-05T09:43:51;96830.0;;;0.5;80.5
28456;BME280;15682;56.742;38.866;2023-03-05T09:46:01;96830.0;;;0.7;80.5
28456;BME280;15682;56.742;38.866;2023-03-05T09:47:48;96830.0;;;0.5;79.9
28456;BME280;15682;56.742;38.866;2023-03-05T09:49:49;96830.0;;;0.7;79.9
28456;BME280;15682;56.742;38.866;2023-03-05T09:51:44;96840.0;;;0.5;81.3
28456;BME280;15682;56.742;38.866;2023-03-05T09:53:47;96840.0;;;0.3;81.3
28456;BME280;15682;56.742;38.866;2023-03-05T09:55:45;96840.0;;;0.3;82.1
28456;BME280;15682;56.742;38.866;2023-03-05T09:57:45;96840.0;;;0.4;81.1
28456;BME280;15682;56.742;38.866;2023-03-05T09:59:47;96840.0;;;0.3;82.2
28456;BME280;15682;56.742;38.866;2023-03-05T10:01:44;96840.0;;;0.1;82.8
28456;BME280;15682;56.742;38.866;2023-03-05T10:03:49;96840.0;;;0.1;82.8
28456;BME280;15682;56.742;38.866;2023-03-05T10:05:51;96840.0;;;0.1;83.3
28456;BME280;15682;56.742;38.866;2023-03-05T10:07:48;96840.0;;;0.1;82.7
28456;BME280;15682;56.742;38.866;2023-03-05T10:09:45;96840.0;;;0.1;83.3
28456;BME280;15682;56.742;38.866;2023-03-05T10:11:48;96840.0;;;0.2;84.2
28456;BME280;15682;56.742;38.866;2023-03-05T10:13:43;96840.0;;;0.0;85.1
28456;BME280;15682;56.742;38.866;2023-03-05T10:15:47;96850.0;;;0.0;84.3
28456;BME280;15682;56.742;38.866;2023-03-05T10:17:50;96860.0;;;-0.2;83.6
28456;BME280;15682;56.742;38.866;2023-03-05T10:19:56;96860.0;;;-0.3;84.2
28456;BME280;15682;56.742;38.866;2023-03-05T10:21:49;96860.0;;;-0.3;85.0
28456;BME280;15682;56.742;38.866;2023-03-05T10:23:53;96860.0;;;-0.3;85.0
28456;BME280;15682;56.742;38.866;2023-03-05T10:25:51;96860.0;;;-0.3;84.4
28456;BME280;15682;56.742;38.866;2023-03-05T10:27:47;96870.0;;;-0.3;83.7
28456;BME280;15682;56.742;38.866;2023-03-05T10:29:55;96880.0;;;-0.3;84.2
28456;BME280;15682;56.742;38.866;2023-03-05T10:31:54;96880.0;;;-0.3;83.8
28456;BME280;15682;56.742;38.866;2023-03-05T10:33:46;96880.0;;;-0.3;83.8
28456;BME280;15682;56.742;38.866;2023-03-05T10:36:04;96890.0;;;-0.3;84.9
28456;BME280;15682;56.742;38.866;2023-03-05T10:37:54;96890.0;;;-0.4;84.2
28456;BME280;15682;56.742;38.866;2023-03-05T10:39:52;96890.0;;;-0.3;84.2
28456;BME280;15682;56.742;38.866;2023-03-05T10:41:51;96890.0;;;-0.4;83.7
28456;BME280;15682;56.742;38.866;2023-03-05T10:43:46;96890.0;;;-0.2;83.7
28456;BME280;15682;56.742;38.866;2023-03-05T10:45:43;96890.0;;;-0.3;84.2
28456;BME280;15682;56.742;38.866;2023-03-05T10:47:44;96890.0;;;-0.2;84.2
28456;BME280;15682;56.742;38.866;2023-03-05T10:49:47;96900.0;;;-0.0;83.6
28456;BME280;15682;56.742;38.866;2023-03-05T10:51:48;96900.0;;;-0.1;83.8
28456;BME280;15682;56.742;38.866;2023-03-05T10:53:49;96900.0;;;0.1;83.8